sensor_id;sensor_type;location;lat;lon;timestamp;temperature;humidity
33207;DHT22;19565;46.602;11.534;2022-08-23T00:02:14;19.80;67.50
33207;DHT22;19565;46.602;11.534;2022-08-23T00:04:50;19.70;66.10
33207;DHT22;19565;46.602;11.534;2022-08-23T00:07:35;19.70;67.00
33207;DHT22;19565;46.602;11.534;2022-08-23T00:10:07;19.70;68.50
33207;DHT22;19565;46.602;11.534;2022-08-23T00:12:36;19.60;68.50
33207;DHT22;19565;46.602;11.534;2022-08-23T00:15:06;19.60;67.30
33207;DHT22;19565;46.602;11.534;2022-08-23T00:17:35;19.50;67.30
33207;DHT22;19565;46.602;11.534;2022-08-23T00:20:04;19.50;67.20
33207;DHT22;19565;46.602;11.534;2022-08-23T00:22:34;19.50;68.20
33207;DHT22;19565;46.602;11.534;2022-08-23T00:25:03;19.30;65.30
33207;DHT22;19565;46.602;11.534;2022-08-23T00:27:33;18.90;65.40
33207;DHT22;19565;46.602;11.534;2022-08-23T00:30:03;18.90;66.40
33207;DHT22;19565;46.602;11.534;2022-08-23T00:32:36;19.10;67.50
33207;DHT22;19565;46.602;11.534;2022-08-23T00:35:06;19.20;66.80
33207;DHT22;19565;46.602;11.534;2022-08-23T00:37:35;19.30;67.60
33207;DHT22;19565;46.602;11.534;2022-08-23T00:40:05;19.40;67.30
33207;DHT22;19565;46.602;11.534;2022-08-23T00:42:39;19.30;65.80
33207;DHT22;19565;46.602;11.534;2022-08-23T00:45:31;19.30;65.50
33207;DHT22;19565;46.602;11.534;2022-08-23T00:48:20;19.30;67.30
33207;DHT22;19565;46.602;11.534;2022-08-23T00:50:52;19.40;66.80
33207;DHT22;19565;46.602;11.534;2022-08-23T00:53:24;19.40;65.30
33207;DHT22;19565;46.602;11.534;2022-08-23T00:55:57;19.40;66.70
33207;DHT22;19565;46.602;11.534;2022-08-23T00:58:27;19.40;67.90
33207;DHT22;19565;46.602;11.534;2022-08-23T01:00:57;19.40;68.00
33207;DHT22;19565;46.602;11.534;2022-08-23T01:03:29;19.40;67.60
33207;DHT22;19565;46.602;11.534;2022-08-23T01:06:10;19.50;67.60
33207;DHT22;19565;46.602;11.534;2022-08-23T01:08:43;19.50;67.20
33207;DHT22;19565;46.602;11.534;2022-08-23T01:11:16;19.30;66.10
33207;DHT22;19565;46.602;11.534;2022-08-23T01:13:50;19.30;67.10
33207;DHT22;19565;46.602;11.534;2022-08-23T01:16:24;19.30;66.40
33207;DHT22;19565;46.602;11.534;2022-08-23T01:18:53;19.20;67.10
33207;DHT22;19565;46.602;11.534;2022-08-23T01:21:25;18.90;65.00
33207;DHT22;19565;46.602;11.534;2022-08-23T01:23:58;19.00;68.30
33207;DHT22;19565;46.602;11.534;2022-08-23T01:26:29;19.00;68.20
33207;DHT22;19565;46.602;11.534;2022-08-23T01:29:02;19.10;68.50
33207;DHT22;19565;46.602;11.534;2022-08-23T01:31:33;19.10;67.80
33207;DHT22;19565;46.602;11.534;2022-08-23T01:34:06;19.10;66.40
33207;DHT22;19565;46.602;11.534;2022-08-23T01:36:35;19.20;66.00
33207;DHT22;19565;46.602;11.534;2022-08-23T01:39:05;19.20;67.10
33207;DHT22;19565;46.602;11.534;2022-08-23T01:41:35;19.20;66.70
33207;DHT22;19565;46.602;11.534;2022-08-23T01:44:04;19.00;66.00
33207;DHT22;19565;46.602;11.534;2022-08-23T01:46:33;18.70;66.10
33207;DHT22;19565;46.602;11.534;2022-08-23T01:49:03;18.70;66.10
33207;DHT22;19565;46.602;11.534;2022-08-23T01:51:34;18.70;66.70
33207;DHT22;19565;46.602;11.534;2022-08-23T01:54:04;18.80;68.60
33207;DHT22;19565;46.602;11.534;2022-08-23T01:56:33;18.80;69.00
33207;DHT22;19565;46.602;11.534;2022-08-23T01:59:05;18.80;68.70
33207;DHT22;19565;46.602;11.534;2022-08-23T02:01:34;18.80;69.30
33207;DHT22;19565;46.602;11.534;2022-08-23T02:04:02;18.80;68.80
33207;DHT22;19565;46.602;11.534;2022-08-23T02:06:31;18.70;67.60
33207;DHT22;19565;46.602;11.534;2022-08-23T02:09:00;18.70;67.10
33207;DHT22;19565;46.602;11.534;2022-08-23T02:11:35;18.70;66.80
33207;DHT22;19565;46.602;11.534;2022-08-23T02:14:08;18.60;67.00
33207;DHT22;19565;46.602;11.534;2022-08-23T02:16:40;18.50;67.10
33207;DHT22;19565;46.602;11.534;2022-08-23T02:19:30;18.60;68.10
33207;DHT22;19565;46.602;11.534;2022-08-23T02:21:58;18.40;67.00
33207;DHT22;19565;46.602;11.534;2022-08-23T02:24:26;18.40;67.70
33207;DHT22;19565;46.602;11.534;2022-08-23T02:26:59;18.40;67.50
33207;DHT22;19565;46.602;11.534;2022-08-23T02:29:28;18.50;67.60
33207;DHT22;19565;46.602;11.534;2022-08-23T02:31:57;18.50;67.80
33207;DHT22;19565;46.602;11.534;2022-08-23T02:34:27;18.40;67.40
33207;DHT22;19565;46.602;11.534;2022-08-23T02:37:02;18.20;66.50
33207;DHT22;19565;46.602;11.534;2022-08-23T02:39:31;17.80;68.50
33207;DHT22;19565;46.602;11.534;2022-08-23T02:42:00;17.90;68.50
33207;DHT22;19565;46.602;11.534;2022-08-23T02:44:28;18.10;69.00
33207;DHT22;19565;46.602;11.534;2022-08-23T02:47:00;17.70;68.80
33207;DHT22;19565;46.602;11.534;2022-08-23T02:49:28;17.50;69.70
33207;DHT22;19565;46.602;11.534;2022-08-23T02:51:57;17.60;69.10
33207;DHT22;19565;46.602;11.534;2022-08-23T02:54:25;17.80;68.90
33207;DHT22;19565;46.602;11.534;2022-08-23T02:56:53;17.80;69.20
33207;DHT22;19565;46.602;11.534;2022-08-23T02:59:22;17.70;69.60
33207;DHT22;19565;46.602;11.534;2022-08-23T03:01:50;17.80;69.20
33207;DHT22;19565;46.602;11.534;2022-08-23T03:04:19;17.40;70.20
33207;DHT22;19565;46.602;11.534;2022-08-23T03:06:47;17.10;70.90
33207;DHT22;19565;46.602;11.534;2022-08-23T03:09:15;16.90;71.80
33207;DHT22;19565;46.602;11.534;2022-08-23T03:11:46;16.90;72.30
33207;DHT22;19565;46.602;11.534;2022-08-23T03:14:15;17.10;71.90
33207;DHT22;19565;46.602;11.534;2022-08-23T03:16:47;17.30;72.00
33207;DHT22;19565;46.602;11.534;2022-08-23T03:19:15;17.50;71.40
33207;DHT22;19565;46.602;11.534;2022-08-23T03:21:44;17.70;70.90
33207;DHT22;19565;46.602;11.534;2022-08-23T03:24:12;17.80;69.80
33207;DHT22;19565;46.602;11.534;2022-08-23T03:26:41;17.70;69.70
33207;DHT22;19565;46.602;11.534;2022-08-23T03:29:09;17.70;69.60
33207;DHT22;19565;46.602;11.534;2022-08-23T03:31:38;17.40;69.70
33207;DHT22;19565;46.602;11.534;2022-08-23T03:34:08;17.30;69.40
33207;DHT22;19565;46.602;11.534;2022-08-23T03:36:37;17.30;69.20
33207;DHT22;19565;46.602;11.534;2022-08-23T03:39:06;17.30;69.30
33207;DHT22;19565;46.602;11.534;2022-08-23T03:41:34;17.10;70.00
33207;DHT22;19565;46.602;11.534;2022-08-23T03:44:02;17.00;70.00
33207;DHT22;19565;46.602;11.534;2022-08-23T03:46:31;17.20;70.00
33207;DHT22;19565;46.602;11.534;2022-08-23T03:49:00;17.40;69.60
33207;DHT22;19565;46.602;11.534;2022-08-23T03:51:31;17.20;69.90
33207;DHT22;19565;46.602;11.534;2022-08-23T03:54:00;16.80;70.70
33207;DHT22;19565;46.602;11.534;2022-08-23T03:56:31;16.60;71.40
33207;DHT22;19565;46.602;11.534;2022-08-23T03:59:02;16.50;71.90
33207;DHT22;19565;46.602;11.534;2022-08-23T04:01:31;16.30;73.00
33207;DHT22;19565;46.602;11.534;2022-08-23T04:03:59;16.30;72.80
33207;DHT22;19565;46.602;11.534;2022-08-23T04:06:29;16.50;72.10
33207;DHT22;19565;46.602;11.534;2022-08-23T04:08:59;16.80;71.40
33207;DHT22;19565;46.602;11.534;2022-08-23T04:11:27;16.60;71.50
33207;DHT22;19565;46.602;11.534;2022-08-23T04:13:55;16.60;72.00
33207;DHT22;19565;46.602;11.534;2022-08-23T04:16:24;16.50;71.90
33207;DHT22;19565;46.602;11.534;2022-08-23T04:18:52;16.60;71.70
33207;DHT22;19565;46.602;11.534;2022-08-23T04:21:22;16.70;71.50
33207;DHT22;19565;46.602;11.534;2022-08-23T04:23:52;16.70;71.70
33207;DHT22;19565;46.602;11.534;2022-08-23T04:26:20;16.90;71.50
33207;DHT22;19565;46.602;11.534;2022-08-23T04:28:52;16.90;71.60
33207;DHT22;19565;46.602;11.534;2022-08-23T04:31:21;16.80;70.50
33207;DHT22;19565;46.602;11.534;2022-08-23T04:33:52;17.00;71.10
33207;DHT22;19565;46.602;11.534;2022-08-23T04:36:22;17.00;71.20
33207;DHT22;19565;46.602;11.534;2022-08-23T04:38:52;17.20;71.00
33207;DHT22;19565;46.602;11.534;2022-08-23T04:41:20;17.30;70.50
33207;DHT22;19565;46.602;11.534;2022-08-23T04:44:06;17.20;70.00
33207;DHT22;19565;46.602;11.534;2022-08-23T04:46:34;17.20;69.90
33207;DHT22;19565;46.602;11.534;2022-08-23T04:49:02;17.00;70.20
33207;DHT22;19565;46.602;11.534;2022-08-23T04:51:31;16.60;71.10
33207;DHT22;19565;46.602;11.534;2022-08-23T04:54:01;16.20;72.30
33207;DHT22;19565;46.602;11.534;2022-08-23T04:56:30;16.30;72.70
33207;DHT22;19565;46.602;11.534;2022-08-23T04:58:58;16.60;72.20
33207;DHT22;19565;46.602;11.534;2022-08-23T05:01:26;16.70;71.70
33207;DHT22;19565;46.602;11.534;2022-08-23T05:03:55;16.20;72.50
33207;DHT22;19565;46.602;11.534;2022-08-23T05:06:23;16.00;73.90
33207;DHT22;19565;46.602;11.534;2022-08-23T05:08:51;16.20;73.90
33207;DHT22;19565;46.602;11.534;2022-08-23T05:11:21;16.10;73.90
33207;DHT22;19565;46.602;11.534;2022-08-23T05:13:49;15.70;75.60
33207;DHT22;19565;46.602;11.534;2022-08-23T05:16:17;15.70;75.80
33207;DHT22;19565;46.602;11.534;2022-08-23T05:18:46;15.70;75.60
33207;DHT22;19565;46.602;11.534;2022-08-23T05:21:15;15.80;74.90
33207;DHT22;19565;46.602;11.534;2022-08-23T05:23:44;15.80;74.60
33207;DHT22;19565;46.602;11.534;2022-08-23T05:26:21;15.90;74.00
33207;DHT22;19565;46.602;11.534;2022-08-23T05:28:50;15.90;73.80
33207;DHT22;19565;46.602;11.534;2022-08-23T05:31:20;15.70;74.10
33207;DHT22;19565;46.602;11.534;2022-08-23T05:33:49;15.90;74.70
33207;DHT22;19565;46.602;11.534;2022-08-23T05:36:18;16.10;74.20
33207;DHT22;19565;46.602;11.534;2022-08-23T05:38:47;16.30;73.70
33207;DHT22;19565;46.602;11.534;2022-08-23T05:41:16;16.40;72.90
33207;DHT22;19565;46.602;11.534;2022-08-23T05:43:48;16.10;73.30
33207;DHT22;19565;46.602;11.534;2022-08-23T05:46:19;15.90;74.30
33207;DHT22;19565;46.602;11.534;2022-08-23T05:48:52;15.80;74.60
33207;DHT22;19565;46.602;11.534;2022-08-23T05:51:22;15.70;74.60
33207;DHT22;19565;46.602;11.534;2022-08-23T05:53:52;15.80;74.90
33207;DHT22;19565;46.602;11.534;2022-08-23T05:56:23;15.80;75.20
33207;DHT22;19565;46.602;11.534;2022-08-23T05:58:56;15.60;75.90
33207;DHT22;19565;46.602;11.534;2022-08-23T06:01:26;15.70;75.80
33207;DHT22;19565;46.602;11.534;2022-08-23T06:03:57;15.70;75.70
33207;DHT22;19565;46.602;11.534;2022-08-23T06:06:25;15.70;75.90
33207;DHT22;19565;46.602;11.534;2022-08-23T06:09:05;15.70;76.10
33207;DHT22;19565;46.602;11.534;2022-08-23T06:11:35;15.60;76.30
33207;DHT22;19565;46.602;11.534;2022-08-23T06:14:07;15.90;75.30
33207;DHT22;19565;46.602;11.534;2022-08-23T06:16:39;16.00;73.80
33207;DHT22;19565;46.602;11.534;2022-08-23T06:19:08;16.00;73.40
33207;DHT22;19565;46.602;11.534;2022-08-23T06:21:38;16.00;73.30
33207;DHT22;19565;46.602;11.534;2022-08-23T06:24:06;16.00;73.50
33207;DHT22;19565;46.602;11.534;2022-08-23T06:26:36;16.00;73.40
33207;DHT22;19565;46.602;11.534;2022-08-23T06:29:10;16.10;72.20
33207;DHT22;19565;46.602;11.534;2022-08-23T06:31:40;16.10;71.90
33207;DHT22;19565;46.602;11.534;2022-08-23T06:34:20;16.10;72.60
33207;DHT22;19565;46.602;11.534;2022-08-23T06:36:51;16.00;73.20
33207;DHT22;19565;46.602;11.534;2022-08-23T06:39:21;16.00;72.50
33207;DHT22;19565;46.602;11.534;2022-08-23T06:41:50;16.00;72.80
33207;DHT22;19565;46.602;11.534;2022-08-23T06:44:20;16.30;72.30
33207;DHT22;19565;46.602;11.534;2022-08-23T06:46:48;16.20;72.30
33207;DHT22;19565;46.602;11.534;2022-08-23T06:49:16;16.20;72.20
33207;DHT22;19565;46.602;11.534;2022-08-23T06:51:48;16.30;71.40
33207;DHT22;19565;46.602;11.534;2022-08-23T06:54:20;16.40;71.00
33207;DHT22;19565;46.602;11.534;2022-08-23T06:56:52;16.60;70.20
33207;DHT22;19565;46.602;11.534;2022-08-23T06:59:22;16.80;69.60
33207;DHT22;19565;46.602;11.534;2022-08-23T07:01:53;16.90;69.40
33207;DHT22;19565;46.602;11.534;2022-08-23T07:04:24;17.10;69.00
33207;DHT22;19565;46.602;11.534;2022-08-23T07:06:53;17.30;68.90
33207;DHT22;19565;46.602;11.534;2022-08-23T07:09:21;17.40;67.70
33207;DHT22;19565;46.602;11.534;2022-08-23T07:11:50;17.50;67.30
33207;DHT22;19565;46.602;11.534;2022-08-23T07:14:19;17.60;66.20
33207;DHT22;19565;46.602;11.534;2022-08-23T07:16:51;17.70;66.70
33207;DHT22;19565;46.602;11.534;2022-08-23T07:19:22;17.90;65.60
33207;DHT22;19565;46.602;11.534;2022-08-23T07:21:55;18.00;65.10
33207;DHT22;19565;46.602;11.534;2022-08-23T07:24:24;18.00;64.60
33207;DHT22;19565;46.602;11.534;2022-08-23T07:26:59;18.10;64.60
33207;DHT22;19565;46.602;11.534;2022-08-23T07:29:32;18.20;63.60
33207;DHT22;19565;46.602;11.534;2022-08-23T07:32:03;18.30;63.60
33207;DHT22;19565;46.602;11.534;2022-08-23T07:34:32;18.40;64.00
33207;DHT22;19565;46.602;11.534;2022-08-23T07:37:00;18.50;63.80
33207;DHT22;19565;46.602;11.534;2022-08-23T07:39:28;18.70;63.80
33207;DHT22;19565;46.602;11.534;2022-08-23T07:41:59;18.70;63.00
33207;DHT22;19565;46.602;11.534;2022-08-23T07:44:47;18.80;61.50
33207;DHT22;19565;46.602;11.534;2022-08-23T07:47:18;18.90;62.00
33207;DHT22;19565;46.602;11.534;2022-08-23T07:49:47;18.90;62.70
33207;DHT22;19565;46.602;11.534;2022-08-23T07:52:15;19.00;61.70
33207;DHT22;19565;46.602;11.534;2022-08-23T07:54:43;19.10;61.30
33207;DHT22;19565;46.602;11.534;2022-08-23T07:57:15;19.10;62.20
33207;DHT22;19565;46.602;11.534;2022-08-23T07:59:43;19.20;62.40
33207;DHT22;19565;46.602;11.534;2022-08-23T08:02:11;19.30;60.90
33207;DHT22;19565;46.602;11.534;2022-08-23T08:04:41;19.40;60.70
33207;DHT22;19565;46.602;11.534;2022-08-23T08:07:09;19.50;61.20
33207;DHT22;19565;46.602;11.534;2022-08-23T08:09:47;19.60;59.90
33207;DHT22;19565;46.602;11.534;2022-08-23T08:12:15;19.70;58.80
33207;DHT22;19565;46.602;11.534;2022-08-23T08:14:44;19.80;58.00
33207;DHT22;19565;46.602;11.534;2022-08-23T08:17:14;19.90;57.30
33207;DHT22;19565;46.602;11.534;2022-08-23T08:19:44;20.00;57.60
33207;DHT22;19565;46.602;11.534;2022-08-23T08:22:12;20.00;58.20
33207;DHT22;19565;46.602;11.534;2022-08-23T08:24:41;20.10;58.50
33207;DHT22;19565;46.602;11.534;2022-08-23T08:27:09;20.30;58.10
33207;DHT22;19565;46.602;11.534;2022-08-23T08:29:38;20.30;57.60
33207;DHT22;19565;46.602;11.534;2022-08-23T08:32:07;20.40;57.00
33207;DHT22;19565;46.602;11.534;2022-08-23T08:34:40;20.50;57.80
33207;DHT22;19565;46.602;11.534;2022-08-23T08:37:10;20.60;56.90
33207;DHT22;19565;46.602;11.534;2022-08-23T08:39:38;20.70;57.00
33207;DHT22;19565;46.602;11.534;2022-08-23T08:42:43;20.80;56.90
33207;DHT22;19565;46.602;11.534;2022-08-23T08:45:20;20.90;56.50
33207;DHT22;19565;46.602;11.534;2022-08-23T08:47:56;21.00;55.90
33207;DHT22;19565;46.602;11.534;2022-08-23T08:50:31;21.10;56.50
33207;DHT22;19565;46.602;11.534;2022-08-23T08:53:08;21.20;57.40
33207;DHT22;19565;46.602;11.534;2022-08-23T08:55:41;21.20;57.40
33207;DHT22;19565;46.602;11.534;2022-08-23T08:58:15;21.20;56.10
33207;DHT22;19565;46.602;11.534;2022-08-23T09:00:43;21.30;55.30
33207;DHT22;19565;46.602;11.534;2022-08-23T09:03:14;21.50;53.20
33207;DHT22;19565;46.602;11.534;2022-08-23T09:05:50;21.70;51.80
33207;DHT22;19565;46.602;11.534;2022-08-23T09:08:46;21.80;51.10
33207;DHT22;19565;46.602;11.534;2022-08-23T09:11:24;21.90;50.20
33207;DHT22;19565;46.602;11.534;2022-08-23T09:14:11;21.90;51.50
33207;DHT22;19565;46.602;11.534;2022-08-23T09:16:49;22.10;50.40
33207;DHT22;19565;46.602;11.534;2022-08-23T09:19:20;22.20;50.90
33207;DHT22;19565;46.602;11.534;2022-08-23T09:21:55;22.40;51.10
33207;DHT22;19565;46.602;11.534;2022-08-23T09:24:26;22.60;49.80
33207;DHT22;19565;46.602;11.534;2022-08-23T09:26:54;22.70;48.50
33207;DHT22;19565;46.602;11.534;2022-08-23T09:29:25;22.80;48.00
33207;DHT22;19565;46.602;11.534;2022-08-23T09:31:55;22.80;46.80
33207;DHT22;19565;46.602;11.534;2022-08-23T09:34:38;22.80;46.00
33207;DHT22;19565;46.602;11.534;2022-08-23T09:37:14;22.90;46.10
33207;DHT22;19565;46.602;11.534;2022-08-23T09:39:47;23.20;43.30
33207;DHT22;19565;46.602;11.534;2022-08-23T09:42:29;23.20;43.80
33207;DHT22;19565;46.602;11.534;2022-08-23T09:44:58;23.20;44.10
33207;DHT22;19565;46.602;11.534;2022-08-23T09:47:32;23.30;43.60
33207;DHT22;19565;46.602;11.534;2022-08-23T09:50:18;23.30;43.80
33207;DHT22;19565;46.602;11.534;2022-08-23T09:52:54;23.30;43.40
33207;DHT22;19565;46.602;11.534;2022-08-23T09:55:30;23.40;41.70
33207;DHT22;19565;46.602;11.534;2022-08-23T09:58:00;23.50;42.80
33207;DHT22;19565;46.602;11.534;2022-08-23T10:00:31;23.50;42.20
33207;DHT22;19565;46.602;11.534;2022-08-23T10:03:25;23.60;42.60
33207;DHT22;19565;46.602;11.534;2022-08-23T10:05:54;23.80;40.60
33207;DHT22;19565;46.602;11.534;2022-08-23T10:08:25;23.90;40.60
33207;DHT22;19565;46.602;11.534;2022-08-23T10:10:58;23.90;39.50
33207;DHT22;19565;46.602;11.534;2022-08-23T10:13:30;24.00;39.50
33207;DHT22;19565;46.602;11.534;2022-08-23T10:16:04;24.20;38.60
33207;DHT22;19565;46.602;11.534;2022-08-23T10:18:51;24.30;37.90
33207;DHT22;19565;46.602;11.534;2022-08-23T10:21:24;24.40;38.40
33207;DHT22;19565;46.602;11.534;2022-08-23T10:24:19;24.60;36.70
33207;DHT22;19565;46.602;11.534;2022-08-23T10:27:04;24.50;35.90
33207;DHT22;19565;46.602;11.534;2022-08-23T10:30:02;24.60;36.10
33207;DHT22;19565;46.602;11.534;2022-08-23T10:32:53;24.70;35.80
33207;DHT22;19565;46.602;11.534;2022-08-23T10:35:33;24.70;35.80
33207;DHT22;19565;46.602;11.534;2022-08-23T10:38:23;24.90;35.10
33207;DHT22;19565;46.602;11.534;2022-08-23T10:41:02;24.90;35.70
33207;DHT22;19565;46.602;11.534;2022-08-23T10:43:41;24.90;35.20
33207;DHT22;19565;46.602;11.534;2022-08-23T10:46:11;24.90;35.00
33207;DHT22;19565;46.602;11.534;2022-08-23T10:48:46;24.90;35.00
33207;DHT22;19565;46.602;11.534;2022-08-23T10:51:20;24.90;35.50
33207;DHT22;19565;46.602;11.534;2022-08-23T10:54:01;24.90;35.20
33207;DHT22;19565;46.602;11.534;2022-08-23T10:56:32;25.10;34.80
33207;DHT22;19565;46.602;11.534;2022-08-23T10:59:07;25.10;33.70
33207;DHT22;19565;46.602;11.534;2022-08-23T11:01:44;25.20;34.90
33207;DHT22;19565;46.602;11.534;2022-08-23T11:04:20;25.40;33.20
33207;DHT22;19565;46.602;11.534;2022-08-23T11:06:53;25.40;34.10
33207;DHT22;19565;46.602;11.534;2022-08-23T11:09:45;25.50;34.20
33207;DHT22;19565;46.602;11.534;2022-08-23T11:12:23;25.70;33.40
33207;DHT22;19565;46.602;11.534;2022-08-23T11:15:10;25.80;32.20
33207;DHT22;19565;46.602;11.534;2022-08-23T11:18:02;25.90;32.30
33207;DHT22;19565;46.602;11.534;2022-08-23T11:20:56;26.00;31.90
33207;DHT22;19565;46.602;11.534;2022-08-23T11:23:41;26.30;31.60
33207;DHT22;19565;46.602;11.534;2022-08-23T11:29:25;26.30;31.50
33207;DHT22;19565;46.602;11.534;2022-08-23T11:32:02;26.30;31.60
33207;DHT22;19565;46.602;11.534;2022-08-23T11:34:41;26.40;31.10
33207;DHT22;19565;46.602;11.534;2022-08-23T11:37:26;26.50;30.80
33207;DHT22;19565;46.602;11.534;2022-08-23T11:40:07;26.60;30.10
33207;DHT22;19565;46.602;11.534;2022-08-23T11:42:47;26.60;31.40
33207;DHT22;19565;46.602;11.534;2022-08-23T11:45:27;26.70;30.40
33207;DHT22;19565;46.602;11.534;2022-08-23T11:48:10;26.80;30.80
33207;DHT22;19565;46.602;11.534;2022-08-23T11:50:58;26.90;30.80
33207;DHT22;19565;46.602;11.534;2022-08-23T11:53:40;27.00;30.20
33207;DHT22;19565;46.602;11.534;2022-08-23T11:56:25;27.00;30.00
33207;DHT22;19565;46.602;11.534;2022-08-23T11:59:12;27.10;29.80
33207;DHT22;19565;46.602;11.534;2022-08-23T12:01:43;27.10;30.10
33207;DHT22;19565;46.602;11.534;2022-08-23T12:04:31;27.10;29.90
33207;DHT22;19565;46.602;11.534;2022-08-23T12:07:00;27.10;29.60
33207;DHT22;19565;46.602;11.534;2022-08-23T12:09:54;27.10;30.50
33207;DHT22;19565;46.602;11.534;2022-08-23T12:12:27;27.10;30.50
33207;DHT22;19565;46.602;11.534;2022-08-23T12:15:06;27.10;29.80
33207;DHT22;19565;46.602;11.534;2022-08-23T12:17:55;27.20;29.70
33207;DHT22;19565;46.602;11.534;2022-08-23T12:20:34;27.20;29.80
33207;DHT22;19565;46.602;11.534;2022-08-23T12:23:18;27.30;29.00
33207;DHT22;19565;46.602;11.534;2022-08-23T12:26:02;27.30;29.80
33207;DHT22;19565;46.602;11.534;2022-08-23T12:28:40;27.30;30.00
33207;DHT22;19565;46.602;11.534;2022-08-23T12:31:16;27.40;29.70
33207;DHT22;19565;46.602;11.534;2022-08-23T12:33:57;27.50;30.00
33207;DHT22;19565;46.602;11.534;2022-08-23T12:36:37;27.70;29.30
33207;DHT22;19565;46.602;11.534;2022-08-23T12:39:06;27.80;28.30
33207;DHT22;19565;46.602;11.534;2022-08-23T12:41:51;27.80;29.40
33207;DHT22;19565;46.602;11.534;2022-08-23T12:44:24;27.80;29.00
33207;DHT22;19565;46.602;11.534;2022-08-23T12:46:53;27.80;28.50
33207;DHT22;19565;46.602;11.534;2022-08-23T12:49:24;28.00;28.90
33207;DHT22;19565;46.602;11.534;2022-08-23T12:51:56;28.00;28.10
33207;DHT22;19565;46.602;11.534;2022-08-23T12:54:34;28.10;28.30
33207;DHT22;19565;46.602;11.534;2022-08-23T12:57:04;28.10;28.10
33207;DHT22;19565;46.602;11.534;2022-08-23T12:59:40;28.10;28.30
33207;DHT22;19565;46.602;11.534;2022-08-23T13:02:16;28.10;28.10
33207;DHT22;19565;46.602;11.534;2022-08-23T13:04:45;28.10;27.80
33207;DHT22;19565;46.602;11.534;2022-08-23T13:07:18;28.10;27.80
33207;DHT22;19565;46.602;11.534;2022-08-23T13:09:48;28.20;28.10
33207;DHT22;19565;46.602;11.534;2022-08-23T13:12:19;28.20;27.60
33207;DHT22;19565;46.602;11.534;2022-08-23T13:14:50;28.40;27.60
33207;DHT22;19565;46.602;11.534;2022-08-23T13:17:28;28.60;27.10
33207;DHT22;19565;46.602;11.534;2022-08-23T13:20:25;28.60;27.30
33207;DHT22;19565;46.602;11.534;2022-08-23T13:23:00;28.60;27.20
33207;DHT22;19565;46.602;11.534;2022-08-23T13:25:31;28.60;27.00
33207;DHT22;19565;46.602;11.534;2022-08-23T13:28:02;28.60;26.60
33207;DHT22;19565;46.602;11.534;2022-08-23T13:30:32;28.70;26.70
33207;DHT22;19565;46.602;11.534;2022-08-23T13:33:19;28.80;26.90
33207;DHT22;19565;46.602;11.534;2022-08-23T13:35:50;28.80;25.70
33207;DHT22;19565;46.602;11.534;2022-08-23T13:38:23;28.80;26.60
33207;DHT22;19565;46.602;11.534;2022-08-23T13:40:55;28.70;27.00
33207;DHT22;19565;46.602;11.534;2022-08-23T13:43:27;28.70;26.40
33207;DHT22;19565;46.602;11.534;2022-08-23T13:45:59;28.80;26.50
33207;DHT22;19565;46.602;11.534;2022-08-23T13:48:32;28.90;26.20
33207;DHT22;19565;46.602;11.534;2022-08-23T13:51:24;28.80;25.90
33207;DHT22;19565;46.602;11.534;2022-08-23T13:53:55;28.90;25.70
33207;DHT22;19565;46.602;11.534;2022-08-23T13:56:24;28.80;26.20
33207;DHT22;19565;46.602;11.534;2022-08-23T13:58:56;29.00;25.60
33207;DHT22;19565;46.602;11.534;2022-08-23T14:01:25;29.10;24.60
33207;DHT22;19565;46.602;11.534;2022-08-23T14:03:54;29.10;25.10
33207;DHT22;19565;46.602;11.534;2022-08-23T14:06:23;29.30;26.20
33207;DHT22;19565;46.602;11.534;2022-08-23T14:08:51;29.20;26.60
33207;DHT22;19565;46.602;11.534;2022-08-23T14:11:21;29.20;26.40
33207;DHT22;19565;46.602;11.534;2022-08-23T14:13:49;29.30;26.50
33207;DHT22;19565;46.602;11.534;2022-08-23T14:16:22;29.40;26.70
33207;DHT22;19565;46.602;11.534;2022-08-23T14:19:01;29.40;26.50
33207;DHT22;19565;46.602;11.534;2022-08-23T14:21:50;29.30;26.60
33207;DHT22;19565;46.602;11.534;2022-08-23T14:24:19;29.40;27.10
33207;DHT22;19565;46.602;11.534;2022-08-23T14:26:49;29.40;26.70
33207;DHT22;19565;46.602;11.534;2022-08-23T14:29:19;29.40;26.40
33207;DHT22;19565;46.602;11.534;2022-08-23T14:31:49;29.60;26.60
33207;DHT22;19565;46.602;11.534;2022-08-23T14:34:17;29.60;26.10
33207;DHT22;19565;46.602;11.534;2022-08-23T14:36:45;29.80;25.40
33207;DHT22;19565;46.602;11.534;2022-08-23T14:39:34;30.10;25.40
33207;DHT22;19565;46.602;11.534;2022-08-23T14:42:04;30.80;24.60
33207;DHT22;19565;46.602;11.534;2022-08-23T14:44:33;31.30;24.40
33207;DHT22;19565;46.602;11.534;2022-08-23T14:47:03;31.80;23.80
33207;DHT22;19565;46.602;11.534;2022-08-23T14:49:31;32.40;23.20
33207;DHT22;19565;46.602;11.534;2022-08-23T14:51:59;32.90;22.90
33207;DHT22;19565;46.602;11.534;2022-08-23T14:54:28;33.40;22.00
33207;DHT22;19565;46.602;11.534;2022-08-23T14:56:56;33.70;21.70
33207;DHT22;19565;46.602;11.534;2022-08-23T14:59:26;34.00;21.80
33207;DHT22;19565;46.602;11.534;2022-08-23T15:01:54;34.30;21.80
33207;DHT22;19565;46.602;11.534;2022-08-23T15:04:24;34.50;21.90
33207;DHT22;19565;46.602;11.534;2022-08-23T15:07:00;34.50;21.00
33207;DHT22;19565;46.602;11.534;2022-08-23T15:09:46;34.70;21.80
33207;DHT22;19565;46.602;11.534;2022-08-23T15:12:14;34.80;21.00
33207;DHT22;19565;46.602;11.534;2022-08-23T15:15:07;34.90;21.30
33207;DHT22;19565;46.602;11.534;2022-08-23T15:17:44;34.90;21.30
33207;DHT22;19565;46.602;11.534;2022-08-23T15:20:12;34.90;21.20
33207;DHT22;19565;46.602;11.534;2022-08-23T15:22:41;34.90;21.90
33207;DHT22;19565;46.602;11.534;2022-08-23T15:25:21;35.00;21.40
33207;DHT22;19565;46.602;11.534;2022-08-23T15:27:49;34.50;21.30
33207;DHT22;19565;46.602;11.534;2022-08-23T15:30:20;34.30;21.30
33207;DHT22;19565;46.602;11.534;2022-08-23T15:32:48;34.00;21.60
33207;DHT22;19565;46.602;11.534;2022-08-23T15:35:36;33.80;22.20
33207;DHT22;19565;46.602;11.534;2022-08-23T15:38:06;33.20;22.70
33207;DHT22;19565;46.602;11.534;2022-08-23T15:40:34;32.40;23.50
33207;DHT22;19565;46.602;11.534;2022-08-23T15:43:03;31.80;24.10
33207;DHT22;19565;46.602;11.534;2022-08-23T15:45:35;31.40;25.50
33207;DHT22;19565;46.602;11.534;2022-08-23T15:48:15;30.80;25.30
33207;DHT22;19565;46.602;11.534;2022-08-23T15:50:46;30.30;25.60
33207;DHT22;19565;46.602;11.534;2022-08-23T15:53:15;29.90;27.10
33207;DHT22;19565;46.602;11.534;2022-08-23T15:55:44;29.70;25.60